sensor_id;sensor_type;location;lat;lon;timestamp;P1;durP1;ratioP1;P2;durP2;ratioP2
3034;SDS011;1527;48.836;9.172;2022-07-29T00:01:42;6.50;;;5.90;;
3034;SDS011;1527;48.836;9.172;2022-07-29T00:04:11;6.97;;;6.23;;
3034;SDS011;1527;48.836;9.172;2022-07-29T00:06:41;5.60;;;5.10;;
3034;SDS011;1527;48.836;9.172;2022-07-29T00:09:10;7.63;;;6.47;;
3034;SDS011;1527;48.836;9.172;2022-07-29T00:11:39;7.13;;;6.17;;
3034;SDS011;1527;48.836;9.172;2022-07-29T00:14:10;7.03;;;6.43;;
3034;SDS011;1527;48.836;9.172;2022-07-29T00:16:39;6.97;;;6.37;;
3034;SDS011;1527;48.836;9.172;2022-07-29T00:19:09;7.33;;;6.57;;
3034;SDS011;1527;48.836;9.172;2022-07-29T00:21:38;10.73;;;7.27;;
3034;SDS011;1527;48.836;9.172;2022-07-29T00:24:08;8.37;;;7.33;;
3034;SDS011;1527;48.836;9.172;2022-07-29T00:26:37;10.70;;;9.70;;
3034;SDS011;1527;48.836;9.172;2022-07-29T00:29:06;9.23;;;7.33;;
3034;SDS011;1527;48.836;9.172;2022-07-29T00:31:56;7.70;;;7.00;;
3034;SDS011;1527;48.836;9.172;2022-07-29T00:34:25;8.83;;;7.50;;
3034;SDS011;1527;48.836;9.172;2022-07-29T00:37:12;7.77;;;7.00;;
3034;SDS011;1527;48.836;9.172;2022-07-29T00:39:41;7.93;;;7.10;;
3034;SDS011;1527;48.836;9.172;2022-07-29T00:42:11;10.27;;;6.73;;
3034;SDS011;1527;48.836;9.172;2022-07-29T00:44:40;10.93;;;7.63;;
3034;SDS011;1527;48.836;9.172;2022-07-29T00:47:11;9.33;;;6.93;;
3034;SDS011;1527;48.836;9.172;2022-07-29T00:49:41;7.95;;;7.15;;
3034;SDS011;1527;48.836;9.172;2022-07-29T00:52:10;11.07;;;8.27;;
3034;SDS011;1527;48.836;9.172;2022-07-29T00:54:43;7.70;;;6.97;;
3034;SDS011;1527;48.836;9.172;2022-07-29T00:57:12;7.80;;;7.00;;
3034;SDS011;1527;48.836;9.172;2022-07-29T00:59:41;12.80;;;8.90;;
3034;SDS011;1527;48.836;9.172;2022-07-29T01:02:12;8.20;;;6.60;;
3034;SDS011;1527;48.836;9.172;2022-07-29T01:04:41;7.40;;;6.57;;
3034;SDS011;1527;48.836;9.172;2022-07-29T01:07:10;7.28;;;6.53;;
3034;SDS011;1527;48.836;9.172;2022-07-29T01:09:40;7.97;;;7.27;;
3034;SDS011;1527;48.836;9.172;2022-07-29T01:12:13;9.07;;;7.23;;
3034;SDS011;1527;48.836;9.172;2022-07-29T01:14:46;9.68;;;7.80;;
3034;SDS011;1527;48.836;9.172;2022-07-29T01:17:20;10.13;;;8.32;;
3034;SDS011;1527;48.836;9.172;2022-07-29T01:19:55;9.37;;;7.40;;
3034;SDS011;1527;48.836;9.172;2022-07-29T01:22:35;9.10;;;8.13;;
3034;SDS011;1527;48.836;9.172;2022-07-29T01:25:19;7.23;;;6.53;;
3034;SDS011;1527;48.836;9.172;2022-07-29T01:28:51;7.03;;;6.33;;
3034;SDS011;1527;48.836;9.172;2022-07-29T01:31:36;8.02;;;7.22;;
3034;SDS011;1527;48.836;9.172;2022-07-29T01:34:27;6.83;;;6.30;;
3034;SDS011;1527;48.836;9.172;2022-07-29T01:37:05;10.50;;;6.70;;
3034;SDS011;1527;48.836;9.172;2022-07-29T01:39:41;6.43;;;5.93;;
3034;SDS011;1527;48.836;9.172;2022-07-29T01:42:14;7.67;;;6.90;;
3034;SDS011;1527;48.836;9.172;2022-07-29T01:44:53;8.23;;;6.80;;
3034;SDS011;1527;48.836;9.172;2022-07-29T01:47:26;7.90;;;7.20;;
3034;SDS011;1527;48.836;9.172;2022-07-29T01:50:03;7.07;;;6.50;;
3034;SDS011;1527;48.836;9.172;2022-07-29T01:52:39;8.15;;;6.70;;
3034;SDS011;1527;48.836;9.172;2022-07-29T01:55:14;7.90;;;7.20;;
3034;SDS011;1527;48.836;9.172;2022-07-29T01:57:45;7.93;;;7.20;;
3034;SDS011;1527;48.836;9.172;2022-07-29T02:00:18;8.47;;;7.77;;
3034;SDS011;1527;48.836;9.172;2022-07-29T02:02:48;13.50;;;7.60;;
3034;SDS011;1527;48.836;9.172;2022-07-29T02:05:24;7.80;;;7.13;;
3034;SDS011;1527;48.836;9.172;2022-07-29T02:07:57;9.93;;;7.50;;
3034;SDS011;1527;48.836;9.172;2022-07-29T02:10:27;7.97;;;7.17;;
3034;SDS011;1527;48.836;9.172;2022-07-29T02:12:59;8.57;;;7.78;;
3034;SDS011;1527;48.836;9.172;2022-07-29T02:15:32;7.53;;;6.82;;
3034;SDS011;1527;48.836;9.172;2022-07-29T02:18:03;6.90;;;6.30;;
3034;SDS011;1527;48.836;9.172;2022-07-29T02:20:36;7.30;;;6.60;;
3034;SDS011;1527;48.836;9.172;2022-07-29T02:23:07;6.97;;;6.45;;
3034;SDS011;1527;48.836;9.172;2022-07-29T02:25:38;6.50;;;6.10;;
3034;SDS011;1527;48.836;9.172;2022-07-29T02:28:11;7.35;;;6.75;;
3034;SDS011;1527;48.836;9.172;2022-07-29T02:30:43;7.47;;;6.10;;
3034;SDS011;1527;48.836;9.172;2022-07-29T02:33:14;8.15;;;7.13;;
3034;SDS011;1527;48.836;9.172;2022-07-29T02:35:46;7.50;;;6.88;;
3034;SDS011;1527;48.836;9.172;2022-07-29T02:38:16;7.82;;;7.13;;
3034;SDS011;1527;48.836;9.172;2022-07-29T02:41:05;7.72;;;7.03;;
3034;SDS011;1527;48.836;9.172;2022-07-29T02:43:41;15.23;;;6.65;;
3034;SDS011;1527;48.836;9.172;2022-07-29T02:46:16;7.00;;;6.40;;
3034;SDS011;1527;48.836;9.172;2022-07-29T02:49:02;8.23;;;7.40;;
3034;SDS011;1527;48.836;9.172;2022-07-29T02:51:40;8.15;;;7.10;;
3034;SDS011;1527;48.836;9.172;2022-07-29T02:54:16;7.87;;;7.13;;
3034;SDS011;1527;48.836;9.172;2022-07-29T02:56:52;7.07;;;6.47;;
3034;SDS011;1527;48.836;9.172;2022-07-29T02:59:24;7.60;;;6.90;;
3034;SDS011;1527;48.836;9.172;2022-07-29T03:01:57;7.40;;;6.70;;
3034;SDS011;1527;48.836;9.172;2022-07-29T03:04:28;7.40;;;6.80;;
3034;SDS011;1527;48.836;9.172;2022-07-29T03:06:59;8.32;;;7.13;;
3034;SDS011;1527;48.836;9.172;2022-07-29T03:09:30;8.93;;;7.35;;
3034;SDS011;1527;48.836;9.172;2022-07-29T03:11:59;9.90;;;8.45;;
3034;SDS011;1527;48.836;9.172;2022-07-29T03:14:30;9.38;;;8.48;;
3034;SDS011;1527;48.836;9.172;2022-07-29T03:17:01;9.25;;;8.43;;
3034;SDS011;1527;48.836;9.172;2022-07-29T03:19:31;9.38;;;8.40;;
3034;SDS011;1527;48.836;9.172;2022-07-29T03:22:01;9.30;;;8.38;;
3034;SDS011;1527;48.836;9.172;2022-07-29T03:24:31;9.15;;;8.27;;
3034;SDS011;1527;48.836;9.172;2022-07-29T03:27:03;8.93;;;8.02;;
3034;SDS011;1527;48.836;9.172;2022-07-29T03:29:33;9.13;;;7.50;;
3034;SDS011;1527;48.836;9.172;2022-07-29T03:32:05;10.43;;;9.05;;
3034;SDS011;1527;48.836;9.172;2022-07-29T03:34:36;9.20;;;8.30;;
3034;SDS011;1527;48.836;9.172;2022-07-29T03:37:06;8.25;;;7.45;;
3034;SDS011;1527;48.836;9.172;2022-07-29T03:39:38;9.68;;;8.43;;
3034;SDS011;1527;48.836;9.172;2022-07-29T03:42:10;9.83;;;8.40;;
3034;SDS011;1527;48.836;9.172;2022-07-29T03:44:43;9.83;;;7.60;;
3034;SDS011;1527;48.836;9.172;2022-07-29T03:47:16;10.38;;;8.75;;
3034;SDS011;1527;48.836;9.172;2022-07-29T03:50:11;7.78;;;7.18;;
3034;SDS011;1527;48.836;9.172;2022-07-29T03:52:43;8.75;;;7.95;;
3034;SDS011;1527;48.836;9.172;2022-07-29T03:55:13;8.93;;;8.13;;
3034;SDS011;1527;48.836;9.172;2022-07-29T03:57:43;8.60;;;7.80;;
3034;SDS011;1527;48.836;9.172;2022-07-29T04:00:14;12.07;;;8.95;;
3034;SDS011;1527;48.836;9.172;2022-07-29T04:03:05;9.63;;;8.25;;
3034;SDS011;1527;48.836;9.172;2022-07-29T04:05:37;8.50;;;7.70;;
3034;SDS011;1527;48.836;9.172;2022-07-29T04:08:09;8.82;;;7.95;;
3034;SDS011;1527;48.836;9.172;2022-07-29T04:10:39;8.95;;;8.10;;
3034;SDS011;1527;48.836;9.172;2022-07-29T04:13:08;9.43;;;8.30;;
3034;SDS011;1527;48.836;9.172;2022-07-29T04:15:37;8.88;;;8.02;;
3034;SDS011;1527;48.836;9.172;2022-07-29T04:18:07;9.60;;;8.65;;
3034;SDS011;1527;48.836;9.172;2022-07-29T04:20:37;9.10;;;8.20;;
3034;SDS011;1527;48.836;9.172;2022-07-29T04:23:06;9.10;;;8.18;;
3034;SDS011;1527;48.836;9.172;2022-07-29T04:25:36;9.75;;;8.82;;
3034;SDS011;1527;48.836;9.172;2022-07-29T04:28:10;11.15;;;8.73;;
3034;SDS011;1527;48.836;9.172;2022-07-29T04:30:39;8.45;;;7.72;;
3034;SDS011;1527;48.836;9.172;2022-07-29T04:33:10;8.65;;;7.85;;
3034;SDS011;1527;48.836;9.172;2022-07-29T04:35:39;11.18;;;8.40;;
3034;SDS011;1527;48.836;9.172;2022-07-29T04:38:18;9.55;;;8.10;;
3034;SDS011;1527;48.836;9.172;2022-07-29T04:40:47;15.80;;;8.70;;
3034;SDS011;1527;48.836;9.172;2022-07-29T04:43:17;8.85;;;7.75;;
3034;SDS011;1527;48.836;9.172;2022-07-29T04:45:49;9.30;;;8.50;;
3034;SDS011;1527;48.836;9.172;2022-07-29T04:48:20;10.00;;;9.10;;
3034;SDS011;1527;48.836;9.172;2022-07-29T04:50:55;14.20;;;8.70;;
3034;SDS011;1527;48.836;9.172;2022-07-29T04:53:24;9.85;;;8.80;;
3034;SDS011;1527;48.836;9.172;2022-07-29T04:55:54;10.25;;;9.20;;
3034;SDS011;1527;48.836;9.172;2022-07-29T04:58:23;10.23;;;7.90;;
3034;SDS011;1527;48.836;9.172;2022-07-29T05:00:53;8.55;;;7.78;;
3034;SDS011;1527;48.836;9.172;2022-07-29T05:03:24;8.32;;;7.63;;
3034;SDS011;1527;48.836;9.172;2022-07-29T05:05:53;12.48;;;7.90;;
3034;SDS011;1527;48.836;9.172;2022-07-29T05:08:22;9.65;;;7.95;;
3034;SDS011;1527;48.836;9.172;2022-07-29T05:10:51;8.52;;;7.72;;
3034;SDS011;1527;48.836;9.172;2022-07-29T05:13:20;11.48;;;8.50;;
3034;SDS011;1527;48.836;9.172;2022-07-29T05:15:49;8.80;;;8.00;;
3034;SDS011;1527;48.836;9.172;2022-07-29T05:18:19;7.78;;;7.07;;
3034;SDS011;1527;48.836;9.172;2022-07-29T05:20:53;8.33;;;7.63;;
3034;SDS011;1527;48.836;9.172;2022-07-29T05:23:23;8.87;;;7.70;;
3034;SDS011;1527;48.836;9.172;2022-07-29T05:25:53;8.10;;;7.30;;
3034;SDS011;1527;48.836;9.172;2022-07-29T05:28:22;10.47;;;7.90;;
3034;SDS011;1527;48.836;9.172;2022-07-29T05:30:51;7.97;;;7.17;;
3034;SDS011;1527;48.836;9.172;2022-07-29T05:33:20;7.80;;;6.83;;
3034;SDS011;1527;48.836;9.172;2022-07-29T05:36:04;8.17;;;7.27;;
3034;SDS011;1527;48.836;9.172;2022-07-29T05:38:34;7.43;;;6.83;;
3034;SDS011;1527;48.836;9.172;2022-07-29T05:41:04;11.53;;;7.07;;
3034;SDS011;1527;48.836;9.172;2022-07-29T05:43:33;5.93;;;5.43;;
3034;SDS011;1527;48.836;9.172;2022-07-29T05:46:03;5.53;;;4.17;;
3034;SDS011;1527;48.836;9.172;2022-07-29T05:48:32;4.37;;;3.97;;
3034;SDS011;1527;48.836;9.172;2022-07-29T05:51:01;6.70;;;3.63;;
3034;SDS011;1527;48.836;9.172;2022-07-29T05:53:33;4.00;;;2.83;;
3034;SDS011;1527;48.836;9.172;2022-07-29T05:56:03;3.83;;;3.53;;
3034;SDS011;1527;48.836;9.172;2022-07-29T05:58:32;4.63;;;3.80;;
3034;SDS011;1527;48.836;9.172;2022-07-29T06:01:02;6.03;;;3.80;;
3034;SDS011;1527;48.836;9.172;2022-07-29T06:03:31;3.70;;;3.40;;
3034;SDS011;1527;48.836;9.172;2022-07-29T06:06:01;3.83;;;3.40;;
3034;SDS011;1527;48.836;9.172;2022-07-29T06:08:32;4.87;;;4.27;;
3034;SDS011;1527;48.836;9.172;2022-07-29T06:11:04;4.40;;;4.00;;
3034;SDS011;1527;48.836;9.172;2022-07-29T06:13:33;5.30;;;4.20;;
3034;SDS011;1527;48.836;9.172;2022-07-29T06:16:02;4.27;;;3.93;;
3034;SDS011;1527;48.836;9.172;2022-07-29T06:18:32;4.27;;;3.90;;
3034;SDS011;1527;48.836;9.172;2022-07-29T06:21:06;5.10;;;4.13;;
3034;SDS011;1527;48.836;9.172;2022-07-29T06:23:39;6.43;;;4.70;;
3034;SDS011;1527;48.836;9.172;2022-07-29T06:26:09;4.57;;;4.17;;
3034;SDS011;1527;48.836;9.172;2022-07-29T06:28:40;7.73;;;3.80;;
3034;SDS011;1527;48.836;9.172;2022-07-29T06:31:10;4.37;;;3.97;;
3034;SDS011;1527;48.836;9.172;2022-07-29T06:33:39;4.43;;;3.80;;
3034;SDS011;1527;48.836;9.172;2022-07-29T06:36:08;4.00;;;3.70;;
3034;SDS011;1527;48.836;9.172;2022-07-29T06:38:39;4.83;;;3.63;;
3034;SDS011;1527;48.836;9.172;2022-07-29T06:41:17;3.60;;;3.27;;
3034;SDS011;1527;48.836;9.172;2022-07-29T06:43:46;3.40;;;3.10;;
3034;SDS011;1527;48.836;9.172;2022-07-29T06:46:21;4.20;;;3.80;;
3034;SDS011;1527;48.836;9.172;2022-07-29T06:48:51;4.50;;;4.10;;
3034;SDS011;1527;48.836;9.172;2022-07-29T06:51:20;4.20;;;3.57;;
3034;SDS011;1527;48.836;9.172;2022-07-29T06:53:52;5.23;;;3.60;;
3034;SDS011;1527;48.836;9.172;2022-07-29T06:56:29;5.90;;;4.20;;
3034;SDS011;1527;48.836;9.172;2022-07-29T06:59:06;7.47;;;5.23;;
3034;SDS011;1527;48.836;9.172;2022-07-29T07:01:37;7.20;;;4.83;;
3034;SDS011;1527;48.836;9.172;2022-07-29T07:04:11;5.30;;;4.70;;
3034;SDS011;1527;48.836;9.172;2022-07-29T07:06:41;6.20;;;4.23;;
3034;SDS011;1527;48.836;9.172;2022-07-29T07:09:12;6.03;;;4.13;;
3034;SDS011;1527;48.836;9.172;2022-07-29T07:11:41;4.20;;;3.90;;
3034;SDS011;1527;48.836;9.172;2022-07-29T07:14:15;4.87;;;4.47;;
3034;SDS011;1527;48.836;9.172;2022-07-29T07:16:45;6.07;;;4.00;;
3034;SDS011;1527;48.836;9.172;2022-07-29T07:19:18;4.80;;;4.40;;
3034;SDS011;1527;48.836;9.172;2022-07-29T07:21:47;8.83;;;4.30;;
3034;SDS011;1527;48.836;9.172;2022-07-29T07:24:18;7.30;;;4.73;;
3034;SDS011;1527;48.836;9.172;2022-07-29T07:26:47;8.83;;;5.00;;
3034;SDS011;1527;48.836;9.172;2022-07-29T07:29:16;4.77;;;4.37;;
3034;SDS011;1527;48.836;9.172;2022-07-29T07:31:45;5.87;;;4.40;;
3034;SDS011;1527;48.836;9.172;2022-07-29T07:34:15;9.17;;;5.17;;
3034;SDS011;1527;48.836;9.172;2022-07-29T07:36:55;5.30;;;4.80;;
3034;SDS011;1527;48.836;9.172;2022-07-29T07:39:26;5.20;;;4.80;;
3034;SDS011;1527;48.836;9.172;2022-07-29T07:41:55;5.10;;;4.60;;
3034;SDS011;1527;48.836;9.172;2022-07-29T07:44:24;4.73;;;4.33;;
3034;SDS011;1527;48.836;9.172;2022-07-29T07:46:53;4.60;;;4.20;;
3034;SDS011;1527;48.836;9.172;2022-07-29T07:49:29;4.87;;;4.43;;
3034;SDS011;1527;48.836;9.172;2022-07-29T07:51:59;4.63;;;3.83;;
3034;SDS011;1527;48.836;9.172;2022-07-29T07:54:29;4.70;;;4.30;;
3034;SDS011;1527;48.836;9.172;2022-07-29T07:56:59;4.33;;;3.97;;
3034;SDS011;1527;48.836;9.172;2022-07-29T07:59:28;4.37;;;4.00;;
3034;SDS011;1527;48.836;9.172;2022-07-29T08:01:57;5.03;;;4.07;;
3034;SDS011;1527;48.836;9.172;2022-07-29T08:04:28;4.60;;;4.20;;
3034;SDS011;1527;48.836;9.172;2022-07-29T08:06:57;5.20;;;4.80;;
3034;SDS011;1527;48.836;9.172;2022-07-29T08:09:28;6.97;;;6.10;;
3034;SDS011;1527;48.836;9.172;2022-07-29T08:11:58;5.20;;;4.70;;
3034;SDS011;1527;48.836;9.172;2022-07-29T08:14:32;6.63;;;5.27;;
3034;SDS011;1527;48.836;9.172;2022-07-29T08:17:01;5.70;;;5.00;;
3034;SDS011;1527;48.836;9.172;2022-07-29T08:19:31;5.53;;;5.03;;
3034;SDS011;1527;48.836;9.172;2022-07-29T08:22:00;5.17;;;4.77;;
3034;SDS011;1527;48.836;9.172;2022-07-29T08:24:32;5.50;;;5.00;;
3034;SDS011;1527;48.836;9.172;2022-07-29T08:27:10;4.90;;;4.50;;
3034;SDS011;1527;48.836;9.172;2022-07-29T08:30:01;5.60;;;5.10;;
3034;SDS011;1527;48.836;9.172;2022-07-29T08:32:30;6.60;;;5.23;;
3034;SDS011;1527;48.836;9.172;2022-07-29T08:35:19;6.80;;;4.93;;
3034;SDS011;1527;48.836;9.172;2022-07-29T08:37:49;5.97;;;5.47;;
3034;SDS011;1527;48.836;9.172;2022-07-29T08:40:20;6.90;;;4.90;;
3034;SDS011;1527;48.836;9.172;2022-07-29T08:42:59;5.17;;;4.67;;
3034;SDS011;1527;48.836;9.172;2022-07-29T08:45:36;7.43;;;5.20;;
3034;SDS011;1527;48.836;9.172;2022-07-29T08:48:15;6.87;;;5.27;;
3034;SDS011;1527;48.836;9.172;2022-07-29T08:50:46;6.70;;;5.90;;
3034;SDS011;1527;48.836;9.172;2022-07-29T08:53:17;6.30;;;5.20;;
3034;SDS011;1527;48.836;9.172;2022-07-29T08:55:48;6.73;;;5.80;;
3034;SDS011;1527;48.836;9.172;2022-07-29T08:58:18;5.73;;;5.20;;
3034;SDS011;1527;48.836;9.172;2022-07-29T09:00:52;6.17;;;5.63;;
3034;SDS011;1527;48.836;9.172;2022-07-29T09:03:24;5.87;;;5.37;;
3034;SDS011;1527;48.836;9.172;2022-07-29T09:05:59;7.20;;;5.70;;
3034;SDS011;1527;48.836;9.172;2022-07-29T09:08:30;7.27;;;6.20;;
3034;SDS011;1527;48.836;9.172;2022-07-29T09:11:01;7.13;;;4.90;;
3034;SDS011;1527;48.836;9.172;2022-07-29T09:13:32;5.60;;;5.10;;
3034;SDS011;1527;48.836;9.172;2022-07-29T09:16:03;6.90;;;5.30;;
3034;SDS011;1527;48.836;9.172;2022-07-29T09:18:36;5.43;;;4.93;;
3034;SDS011;1527;48.836;9.172;2022-07-29T09:21:09;6.90;;;5.73;;
3034;SDS011;1527;48.836;9.172;2022-07-29T09:24:01;5.50;;;5.00;;
3034;SDS011;1527;48.836;9.172;2022-07-29T09:26:36;15.47;;;5.63;;
3034;SDS011;1527;48.836;9.172;2022-07-29T09:29:08;6.50;;;5.87;;
3034;SDS011;1527;48.836;9.172;2022-07-29T09:31:39;6.33;;;5.37;;
3034;SDS011;1527;48.836;9.172;2022-07-29T09:34:11;5.93;;;5.43;;
3034;SDS011;1527;48.836;9.172;2022-07-29T09:36:45;7.90;;;5.33;;
3034;SDS011;1527;48.836;9.172;2022-07-29T09:39:26;6.00;;;5.60;;
3034;SDS011;1527;48.836;9.172;2022-07-29T09:42:00;5.40;;;5.00;;
3034;SDS011;1527;48.836;9.172;2022-07-29T09:44:41;6.40;;;5.80;;
3034;SDS011;1527;48.836;9.172;2022-07-29T09:47:17;6.23;;;5.73;;
3034;SDS011;1527;48.836;9.172;2022-07-29T09:49:53;7.23;;;6.03;;
3034;SDS011;1527;48.836;9.172;2022-07-29T09:52:25;7.80;;;5.50;;
3034;SDS011;1527;48.836;9.172;2022-07-29T09:55:03;6.30;;;5.80;;
3034;SDS011;1527;48.836;9.172;2022-07-29T09:57:35;7.87;;;6.27;;
3034;SDS011;1527;48.836;9.172;2022-07-29T10:00:05;8.80;;;5.93;;
3034;SDS011;1527;48.836;9.172;2022-07-29T10:02:39;6.17;;;5.57;;
3034;SDS011;1527;48.836;9.172;2022-07-29T10:05:19;5.77;;;5.23;;
3034;SDS011;1527;48.836;9.172;2022-07-29T10:07:50;6.30;;;5.70;;
3034;SDS011;1527;48.836;9.172;2022-07-29T10:10:25;6.63;;;5.93;;
3034;SDS011;1527;48.836;9.172;2022-07-29T10:12:59;8.80;;;6.20;;
3034;SDS011;1527;48.836;9.172;2022-07-29T10:15:37;7.07;;;6.00;;
3034;SDS011;1527;48.836;9.172;2022-07-29T10:18:11;8.43;;;5.90;;
3034;SDS011;1527;48.836;9.172;2022-07-29T10:20:44;8.53;;;6.47;;
3034;SDS011;1527;48.836;9.172;2022-07-29T10:23:14;7.27;;;5.93;;
3034;SDS011;1527;48.836;9.172;2022-07-29T10:25:44;7.47;;;6.23;;
3034;SDS011;1527;48.836;9.172;2022-07-29T10:28:15;7.07;;;6.37;;
3034;SDS011;1527;48.836;9.172;2022-07-29T10:30:44;9.27;;;5.80;;
3034;SDS011;1527;48.836;9.172;2022-07-29T10:33:18;6.70;;;6.00;;
3034;SDS011;1527;48.836;9.172;2022-07-29T10:36:14;11.03;;;5.73;;
3034;SDS011;1527;48.836;9.172;2022-07-29T10:38:57;7.93;;;6.27;;
3034;SDS011;1527;48.836;9.172;2022-07-29T10:41:37;9.33;;;7.07;;
3034;SDS011;1527;48.836;9.172;2022-07-29T10:44:23;9.00;;;6.33;;
3034;SDS011;1527;48.836;9.172;2022-07-29T10:46:54;8.93;;;6.77;;
3034;SDS011;1527;48.836;9.172;2022-07-29T10:49:24;6.80;;;5.97;;
3034;SDS011;1527;48.836;9.172;2022-07-29T10:52:01;8.83;;;6.90;;
3034;SDS011;1527;48.836;9.172;2022-07-29T10:54:38;6.60;;;5.90;;
3034;SDS011;1527;48.836;9.172;2022-07-29T10:57:28;10.60;;;6.33;;
3034;SDS011;1527;48.836;9.172;2022-07-29T11:00:27;15.63;;;6.87;;
3034;SDS011;1527;48.836;9.172;2022-07-29T11:03:00;9.17;;;6.60;;
3034;SDS011;1527;48.836;9.172;2022-07-29T11:08:34;6.90;;;6.20;;
3034;SDS011;1527;48.836;9.172;2022-07-29T11:14:01;9.10;;;6.47;;
3034;SDS011;1527;48.836;9.172;2022-07-29T11:19:40;7.27;;;6.60;;
3034;SDS011;1527;48.836;9.172;2022-07-29T11:22:31;7.23;;;6.53;;
3034;SDS011;1527;48.836;9.172;2022-07-29T11:25:14;6.73;;;6.03;;
3034;SDS011;1527;48.836;9.172;2022-07-29T11:28:08;7.30;;;6.70;;
3034;SDS011;1527;48.836;9.172;2022-07-29T11:30:51;7.90;;;7.20;;
3034;SDS011;1527;48.836;9.172;2022-07-29T11:33:29;9.10;;;7.60;;
3034;SDS011;1527;48.836;9.172;2022-07-29T11:36:19;15.30;;;8.80;;
3034;SDS011;1527;48.836;9.172;2022-07-29T11:45:12;12.77;;;8.10;;
3034;SDS011;1527;48.836;9.172;2022-07-29T11:48:16;11.87;;;8.03;;
3034;SDS011;1527;48.836;9.172;2022-07-29T11:50:58;8.83;;;7.93;;
3034;SDS011;1527;48.836;9.172;2022-07-29T11:53:29;8.50;;;7.80;;
3034;SDS011;1527;48.836;9.172;2022-07-29T11:56:00;14.00;;;8.27;;
3034;SDS011;1527;48.836;9.172;2022-07-29T11:58:49;10.33;;;7.60;;
3034;SDS011;1527;48.836;9.172;2022-07-29T12:01:18;7.57;;;6.53;;
3034;SDS011;1527;48.836;9.172;2022-07-29T12:04:01;7.10;;;6.40;;
3034;SDS011;1527;48.836;9.172;2022-07-29T12:06:34;11.67;;;7.27;;
3034;SDS011;1527;48.836;9.172;2022-07-29T12:09:06;7.37;;;6.70;;
3034;SDS011;1527;48.836;9.172;2022-07-29T12:11:40;6.97;;;6.23;;
3034;SDS011;1527;48.836;9.172;2022-07-29T12:14:26;6.33;;;5.73;;
3034;SDS011;1527;48.836;9.172;2022-07-29T12:16:56;7.20;;;6.53;;
3034;SDS011;1527;48.836;9.172;2022-07-29T12:19:26;10.63;;;7.47;;
3034;SDS011;1527;48.836;9.172;2022-07-29T12:21:58;7.93;;;7.23;;
3034;SDS011;1527;48.836;9.172;2022-07-29T12:24:41;8.50;;;7.80;;
3034;SDS011;1527;48.836;9.172;2022-07-29T12:27:12;11.03;;;7.63;;
3034;SDS011;1527;48.836;9.172;2022-07-29T12:29:57;9.13;;;7.77;;
3034;SDS011;1527;48.836;9.172;2022-07-29T12:32:32;11.37;;;7.10;;
3034;SDS011;1527;48.836;9.172;2022-07-29T12:35:03;9.50;;;7.00;;
3034;SDS011;1527;48.836;9.172;2022-07-29T12:37:37;13.27;;;7.40;;
3034;SDS011;1527;48.836;9.172;2022-07-29T12:40:09;10.83;;;7.63;;
3034;SDS011;1527;48.836;9.172;2022-07-29T12:42:40;13.17;;;8.20;;
3034;SDS011;1527;48.836;9.172;2022-07-29T12:45:09;8.67;;;6.87;;
3034;SDS011;1527;48.836;9.172;2022-07-29T12:47:50;7.03;;;6.30;;
3034;SDS011;1527;48.836;9.172;2022-07-29T12:50:20;7.57;;;6.90;;
3034;SDS011;1527;48.836;9.172;2022-07-29T12:52:54;9.43;;;7.00;;
3034;SDS011;1527;48.836;9.172;2022-07-29T12:55:43;6.20;;;5.60;;
3034;SDS011;1527;48.836;9.172;2022-07-29T12:58:25;7.70;;;6.90;;
3034;SDS011;1527;48.836;9.172;2022-07-29T13:01:00;6.17;;;5.57;;
3034;SDS011;1527;48.836;9.172;2022-07-29T13:03:50;6.17;;;5.57;;
3034;SDS011;1527;48.836;9.172;2022-07-29T13:06:29;6.53;;;5.30;;
3034;SDS011;1527;48.836;9.172;2022-07-29T13:09:11;6.03;;;5.53;;
3034;SDS011;1527;48.836;9.172;2022-07-29T13:11:46;6.40;;;5.10;;
3034;SDS011;1527;48.836;9.172;2022-07-29T13:14:29;5.50;;;4.93;;
3034;SDS011;1527;48.836;9.172;2022-07-29T13:17:02;5.87;;;5.37;;
3034;SDS011;1527;48.836;9.172;2022-07-29T13:19:35;8.03;;;5.03;;
3034;SDS011;1527;48.836;9.172;2022-07-29T13:22:07;7.90;;;5.40;;
3034;SDS011;1527;48.836;9.172;2022-07-29T13:24:48;6.43;;;4.67;;
3034;SDS011;1527;48.836;9.172;2022-07-29T13:27:20;5.70;;;5.20;;
3034;SDS011;1527;48.836;9.172;2022-07-29T13:29:51;6.10;;;5.03;;
3034;SDS011;1527;48.836;9.172;2022-07-29T13:32:24;6.20;;;5.60;;
3034;SDS011;1527;48.836;9.172;2022-07-29T13:34:59;5.37;;;4.87;;
3034;SDS011;1527;48.836;9.172;2022-07-29T13:37:31;7.40;;;5.47;;
3034;SDS011;1527;48.836;9.172;2022-07-29T13:40:07;7.50;;;5.30;;
3034;SDS011;1527;48.836;9.172;2022-07-29T13:42:38;6.73;;;5.40;;
3034;SDS011;1527;48.836;9.172;2022-07-29T13:45:08;6.23;;;5.30;;
3034;SDS011;1527;48.836;9.172;2022-07-29T13:47:39;5.70;;;5.07;;
3034;SDS011;1527;48.836;9.172;2022-07-29T13:50:15;5.43;;;4.93;;
3034;SDS011;1527;48.836;9.172;2022-07-29T13:52:44;6.97;;;5.60;;
3034;SDS011;1527;48.836;9.172;2022-07-29T13:55:16;5.80;;;5.20;;
3034;SDS011;1527;48.836;9.172;2022-07-29T13:57:46;8.30;;;5.47;;
3034;SDS011;1527;48.836;9.172;2022-07-29T14:00:15;7.50;;;5.70;;
3034;SDS011;1527;48.836;9.172;2022-07-29T14:02:46;5.90;;;5.40;;
3034;SDS011;1527;48.836;9.172;2022-07-29T14:05:15;9.53;;;5.97;;
3034;SDS011;1527;48.836;9.172;2022-07-29T14:07:44;7.20;;;5.60;;
3034;SDS011;1527;48.836;9.172;2022-07-29T14:10:13;6.70;;;6.10;;
3034;SDS011;1527;48.836;9.172;2022-07-29T14:12:47;8.77;;;4.83;;
3034;SDS011;1527;48.836;9.172;2022-07-29T14:15:16;7.03;;;5.53;;
3034;SDS011;1527;48.836;9.172;2022-07-29T14:17:47;7.93;;;5.83;;
3034;SDS011;1527;48.836;9.172;2022-07-29T14:20:16;6.70;;;6.10;;
3034;SDS011;1527;48.836;9.172;2022-07-29T14:22:45;14.83;;;5.97;;
3034;SDS011;1527;48.836;9.172;2022-07-29T14:25:16;6.80;;;6.00;;
3034;SDS011;1527;48.836;9.172;2022-07-29T14:27:49;5.77;;;5.27;;
3034;SDS011;1527;48.836;9.172;2022-07-29T14:30:20;7.20;;;5.70;;
3034;SDS011;1527;48.836;9.172;2022-07-29T14:32:49;6.50;;;5.60;;
3034;SDS011;1527;48.836;9.172;2022-07-29T14:35:19;6.60;;;5.43;;
3034;SDS011;1527;48.836;9.172;2022-07-29T14:37:48;6.50;;;5.77;;
3034;SDS011;1527;48.836;9.172;2022-07-29T14:40:17;10.10;;;6.77;;
3034;SDS011;1527;48.836;9.172;2022-07-29T14:42:46;6.57;;;5.90;;
3034;SDS011;1527;48.836;9.172;2022-07-29T14:45:17;6.37;;;5.57;;
3034;SDS011;1527;48.836;9.172;2022-07-29T14:47:46;8.43;;;5.80;;
3034;SDS011;1527;48.836;9.172;2022-07-29T14:50:16;8.00;;;5.83;;
3034;SDS011;1527;48.836;9.172;2022-07-29T14:52:58;6.30;;;5.73;;
3034;SDS011;1527;48.836;9.172;2022-07-29T14:55:28;6.33;;;5.70;;
3034;SDS011;1527;48.836;9.172;2022-07-29T14:57:57;8.17;;;5.37;;
3034;SDS011;1527;48.836;9.172;2022-07-29T15:00:39;7.63;;;5.47;;
3034;SDS011;1527;48.836;9.172;2022-07-29T15:03:09;7.13;;;6.00;;
3034;SDS011;1527;48.836;9.172;2022-07-29T15:05:49;8.90;;;6.43;;
3034;SDS011;1527;48.836;9.172;2022-07-29T15:08:18;6.73;;;6.23;;
3034;SDS011;1527;48.836;9.172;2022-07-29T15:10:47;6.60;;;6.00;;
3034;SDS011;1527;48.836;9.172;2022-07-29T15:13:17;7.63;;;5.40;;
3034;SDS011;1527;48.836;9.172;2022-07-29T15:15:47;8.93;;;6.13;;
3034;SDS011;1527;48.836;9.172;2022-07-29T15:18:17;7.20;;;6.17;;
3034;SDS011;1527;48.836;9.172;2022-07-29T15:20:52;7.70;;;6.40;;
3034;SDS011;1527;48.836;9.172;2022-07-29T15:23:21;7.50;;;5.50;;
3034;SDS011;1527;48.836;9.172;2022-07-29T15:25:50;6.67;;;6.13;;
3034;SDS011;1527;48.836;9.172;2022-07-29T15:28:20;9.20;;;5.93;;
3034;SDS011;1527;48.836;9.172;2022-07-29T15:30:50;12.27;;;6.80;;
3034;SDS011;1527;48.836;9.172;2022-07-29T15:33:20;11.03;;;6.23;;
3034;SDS011;1527;48.836;9.172;2022-07-29T15:35:49;10.43;;;6.27;;
3034;SDS011;1527;48.836;9.172;2022-07-29T15:38:18;6.70;;;6.13;;
3034;SDS011;1527;48.836;9.172;2022-07-29T15:40:55;8.90;;;6.40;;
3034;SDS011;1527;48.836;9.172;2022-07-29T15:43:24;10.03;;;6.63;;
3034;SDS011;1527;48.836;9.172;2022-07-29T15:45:55;6.40;;;5.90;;
3034;SDS011;1527;48.836;9.172;2022-07-29T15:48:41;9.13;;;7.60;;
3034;SDS011;1527;48.836;9.172;2022-07-29T15:51:11;6.50;;;5.90;;
3034;SDS011;1527;48.836;9.172;2022-07-29T15:53:40;8.70;;;6.70;;
3034;SDS011;1527;48.836;9.172;2022-07-29T15:56:19;11.80;;;7.77;;
3034;SDS011;1527;48.836;9.172;2022-07-29T15:58:49;8.33;;;7.50;;
3034;SDS011;1527;48.836;9.172;2022-07-29T16:01:20;7.50;;;6.83;;
3034;SDS011;1527;48.836;9.172;2022-07-29T16:03:49;6.70;;;6.10;;
3034;SDS011;1527;48.836;9.172;2022-07-29T16:06:19;7.50;;;6.53;;